KEFD/EFD METAR and TAF weather

Enter ICAO airport designator
Station Type Date Time Source
KEFD METAR 2019/08/22 07:50 UTC NOAA

KEFD 220750Z 00000KT 10SM CLR 26/22 A2995


Station Type Date Time Source
KEFD Decoded METAR 2019/08/22 07:50 UTC NOAA

Station name not available
Aug 22, 2019 - 03:50 AM EDT / 2019.08.22 0750 UTC
Wind: Calm:0
Visibility: 10 mile(s):0
Sky conditions: clear
Temperature: 78 F (26 C)
Dew Point: 71 F (22 C)
Relative Humidity: 78%
Pressure (altimeter): 29.95 in. Hg (1014 hPa)
ob: KEFD 220750Z 00000KT 10SM CLR 26/22 A2995
cycle: 8

Station Type Date Time Source
KEFD TAF 2019/08/22 04:01 UTC NOAA

TAF KEFD 220400Z 2204/2310 VRB06KT 9999 FEW050 QNH2992INS
BECMG 2218/2219 16009KT 9999 VCSH BKN030 BKN050 QNH2991INS
TEMPO 2220/2223 16015G20KT 8000 -TSRA BKN025CB
BECMG 2302/2303 VRB06KT 9999 NSW SCT040 QNH2991INS TX34/2222Z TN26/2211Z

Example: see airport list